Grand Rapids, Ohio
Current Conditions -  °F | °C
As of 4:52 PM on Sunday 23 Nov 2014 (Local Time) from KTOL Reporting Station
Light Rain Light Rain  
Wind Chill: 54°   Ceiling: 4700
Heat Index: 54°   Visibility: 10mi
Dew Point: 46°   Wind: 5mph
Humidity: 75%   Direction: 120°ESE
Pressure: 29.63"   Gusts: NA
Location:  41.41°N, 83.86°W
Report Text: KTOL 232152Z 12004KT 10SM -RA OVC047 12/08 A2963 RMK AO2 RAB28 SLP035 P0000 T01220078
Loading
Personal Weather Stations






























Interactive Weather Map New forecast layout! Learn more

10-Day Weather Forecast

Advertisements
Track Severe Weather on mobile